Wewahitchka, FL

10:12 PM CDT on July 25, 2014 (GMT -0500)
West Arm Creek (KFLWEWAH6) Elev 49 ft | 30.13 °N, 85.20 °W | Change Station

Current weather conditions updated 12 minutes ago

Partly Cloudy
Partly Cloudy
77.4 °F
Feels Like 79 °F
N
0.0
Wind Variable Wind from SW
Gusts 0.0 mph

Tomorrow is forecast to be nearly the same temperature as today. Thunderstorms early.

Today
High -- | Low -- °F
--% Chance of Precip.
Yesterday
High -- | Low -- °F
Precip. -- in
5:55 AM 7:39 PM
Waning Crescent, 1% visible
Pressure 30.05 in
Visibility 10.0 miles
Clouds Few 1900 ft
Heat Index 79 °F
Dew Point 75 °F
Humidity 93%
Rainfall 0.00 in
Snow Depth Not available.
UV 0 out of 12
Pollen 3.40 out of 12
Air Quality Not available.
Flu Activity Not available.
METAR KPAM 260258Z AUTO 24008KT 10SM FEW019 28/25 A3004 RMK AO2 SLP175 T02840253 50010 $

More Conditions Fewer Conditions

Pressure 30.05 in
Visibility 10.0 miles
Clouds Few 1900 ft
Heat Index 79 °F
Dew Point 75 °F
Humidity 93%
Rainfall 0.00 in
Snow Depth Not available.
UV 0 out of 12
Pollen 3.40 out of 12
Air Quality Not available.
Flu Activity Not available.
METAR KPAM 260258Z AUTO 24008KT 10SM FEW019 28/25 A3004 RMK AO2 SLP175 T02840253 50010 $

More Conditions Fewer Conditions

10-Day Weather Forecast

Almanac

Astronomy

Jul. 25, 2014 Rise Set
Actual Time 5:55 AM CDT 7:39 PM CDT
Civil Twilight 5:28 AM CDT 8:05 PM CDT
Nautical Twilight 4:56 AM CDT 8:37 PM CDT
Astronomical Twilight 4:23 AM CDT 9:10 PM CDT
Moon 4:51 AM CDT (7/25) 6:39 PM CDT (7/25)
Length of Visible Light 14h 36m
Length of Day
13h 44m
Tomorrow will be 1m 12s shorter.
Waning Crescent, 1% of the Moon is Illuminated
Today
Waning Crescent
Jul 26
New
Aug 3
First Quarter
Aug 10
Full
Aug 17
Last Quarter

Today's Extremes

State Highs State Lows

Community

WunderPhotos

Upload Photos

1,737,495 photos uploaded!

Nearby

Snow Depth

Station Depth Elevation
No new snow has been reported.

Earthquake Activity

City Distance Mag. Time & Date
No recent earthquake activity has been reported nearby.
Minimum magnitude displayed is 2.5.

Coastal Water Temperatures

Place Temperature
Panama City, FL 86.0 °F
Panama City Beach, FL 84.9 °F
Apalachicola, FL 86.0 °F

Nearby Weather Stations

Station Location Temp. Heat Index Dew Point Humidity Wind Precip. Elev Updated Type
West Arm Creek, Wewahitchka, FL 77.4 °F 79 °F 75 °F 93% SW  at  0.0 mph 0.00 in / hr 49 ft 10:00 PM CDT Normal
Chipola River @ Land's Landing, Wewahitchka, FL 77.5 °F 79 °F 77 °F 97% SE  at  0.0 mph - / hr 23 ft 10:01 PM CDT Normal
RAWS WILMA FL, Hosford, FL 77 °F 78 °F 74 °F 91% North  at  0 mph 0.00 in / hr 64 ft 10:49 PM EDT MADIS
Blountstown, FL 76.6 °F 77 °F 74 °F 91% East  at  0.0 mph 0.00 in / hr 76 ft 10:12 PM CDT Rapid Fire
RAWS SUMATRA FL, Sumatra, FL 78 °F 81 °F 77 °F 96% North  at  0 mph 0.09 in / hr 26 ft 10:04 PM EDT MADIS
Silver Lake Road, Fountain, FL 77.4 °F 79 °F 58 °F 51% South  at  0.0 mph 0.00 in / hr 178 ft 10:12 PM EST Rapid Fire

Show More Stations Show Fewer Stations